createdAt,value
2023-04-10T00:00:36.649Z,90.32
2023-04-10T00:03:04.535Z,89.65
2023-04-10T00:05:31.741Z,89.46
2023-04-10T00:07:58.660Z,89.69
2023-04-10T00:10:26.775Z,89.71
2023-04-10T00:12:54.272Z,90.13
2023-04-10T00:15:21.580Z,90.50
2023-04-10T00:17:50.936Z,90.13
2023-04-10T00:20:20.242Z,90.07
2023-04-10T00:22:47.077Z,89.69
2023-04-10T00:25:13.967Z,89.92
2023-04-10T00:27:40.994Z,89.94
2023-04-10T00:30:08.628Z,89.90
2023-04-10T00:32:35.623Z,89.62
2023-04-10T00:35:03.016Z,89.99
2023-04-10T00:37:29.873Z,89.71
2023-04-10T00:39:56.705Z,88.47
2023-04-10T00:42:23.755Z,88.80
2023-04-10T00:44:51.100Z,89.31
2023-04-10T00:47:18.103Z,89.20
2023-04-10T00:49:45.581Z,89.79
2023-04-10T00:52:13.132Z,88.91
2023-04-10T00:54:41.088Z,89.27
2023-04-10T00:57:08.276Z,88.72
2023-04-10T00:59:35.962Z,88.21
2023-04-10T01:02:03.648Z,88.86
2023-04-10T01:04:32.143Z,88.65
2023-04-10T01:07:07.482Z,87.70
2023-04-10T01:09:39.815Z,88.09
2023-04-10T01:12:13.107Z,87.91
2023-04-10T01:15:13.237Z,89.04
2023-04-10T01:17:58.683Z,88.56
2023-04-10T01:20:30.856Z,88.02
2023-04-10T01:22:57.796Z,87.90
2023-04-10T01:25:49.590Z,88.11
2023-04-10T01:28:19.182Z,88.81
2023-04-10T01:30:56.755Z,88.09
2023-04-10T01:33:30.745Z,88.18
2023-04-10T01:36:02.399Z,87.79
2023-04-10T01:38:31.465Z,86.91
2023-04-10T01:41:00.680Z,86.97
2023-04-10T01:43:29.644Z,87.42
2023-04-10T01:45:58.764Z,86.70
2023-04-10T01:48:26.079Z,86.37
2023-04-10T01:50:54.862Z,86.47
2023-04-10T01:53:23.254Z,86.76
2023-04-10T01:55:51.553Z,86.88
2023-04-10T01:58:19.044Z,86.76
2023-04-10T02:00:46.249Z,86.87
2023-04-10T02:03:13.664Z,86.77
2023-04-10T02:05:57.096Z,86.26
2023-04-10T02:08:34.948Z,86.73
2023-04-10T02:11:13.367Z,86.61
2023-04-10T02:13:41.785Z,86.51
2023-04-10T02:16:09.891Z,86.85
2023-04-10T02:18:38.925Z,85.91
2023-04-10T02:21:07.751Z,86.38
2023-04-10T02:23:35.899Z,86.41
2023-04-10T02:26:09.765Z,86.13
2023-04-10T02:28:40.539Z,86.14
2023-04-10T02:31:08.274Z,86.40
2023-04-10T02:33:35.233Z,85.76
2023-04-10T02:36:02.682Z,86.12
2023-04-10T02:38:29.785Z,84.85
2023-04-10T02:40:56.873Z,85.03
2023-04-10T02:43:23.867Z,85.47
2023-04-10T02:45:51.585Z,85.01
2023-04-10T02:48:18.560Z,84.51
2023-04-10T02:50:46.798Z,84.86
2023-04-10T02:53:16.312Z,85.13
2023-04-10T02:55:43.437Z,85.24
2023-04-10T02:58:10.349Z,85.53
2023-04-10T03:00:37.602Z,85.26
2023-04-10T03:03:04.773Z,85.77
2023-04-10T03:05:31.893Z,85.49
2023-04-10T03:07:58.995Z,85.54
2023-04-10T03:10:26.043Z,85.99
2023-04-10T03:12:53.129Z,85.13
2023-04-10T03:15:19.873Z,85.21
2023-04-10T03:17:46.750Z,85.63
2023-04-10T03:20:14.182Z,85.40
2023-04-10T03:22:41.380Z,85.37
2023-04-10T03:25:08.687Z,85.09
2023-04-10T03:27:36.035Z,84.87
2023-04-10T03:30:03.291Z,84.69
2023-04-10T03:32:31.379Z,84.10
2023-04-10T03:34:59.578Z,84.48
2023-04-10T03:37:27.888Z,83.73
2023-04-10T03:39:54.856Z,83.98
2023-04-10T03:42:21.746Z,84.13
2023-04-10T03:44:48.688Z,83.84
2023-04-10T03:47:16.013Z,83.56
2023-04-10T03:49:45.941Z,83.47
2023-04-10T03:52:12.971Z,84.05
2023-04-10T03:54:40.098Z,84.43
2023-04-10T03:57:06.928Z,84.06
2023-04-10T03:59:38.609Z,84.19
2023-04-10T04:02:07.718Z,84.24
2023-04-10T04:04:34.880Z,84.55
2023-04-10T04:07:02.036Z,84.45
2023-04-10T04:09:29.032Z,84.30
2023-04-10T04:11:56.533Z,84.29
2023-04-10T04:14:24.474Z,84.63
2023-04-10T04:16:51.554Z,85.38
2023-04-10T04:19:18.557Z,84.73
2023-04-10T04:21:45.809Z,84.39
2023-04-10T04:24:12.888Z,84.29
2023-04-10T04:26:39.814Z,84.99
2023-04-10T04:29:06.775Z,85.08
2023-04-10T04:31:33.761Z,85.50
2023-04-10T04:34:00.809Z,84.55
2023-04-10T04:36:28.562Z,84.89
2023-04-10T04:38:55.582Z,84.97
2023-04-10T04:41:22.666Z,85.53
2023-04-10T04:43:49.746Z,85.78
2023-04-10T04:46:16.613Z,85.27
2023-04-10T04:48:43.465Z,84.93
2023-04-10T04:51:10.468Z,84.72
2023-04-10T04:53:37.558Z,84.48
2023-04-10T04:56:04.618Z,84.15
2023-04-10T04:58:31.544Z,83.25
2023-04-10T05:00:58.554Z,83.10
2023-04-10T05:03:25.783Z,82.55
2023-04-10T05:05:52.773Z,82.02
2023-04-10T05:08:19.719Z,82.08
2023-04-10T05:10:48.888Z,81.26
2023-04-10T05:13:17.631Z,80.99
2023-04-10T05:15:45.219Z,80.43
2023-04-10T05:18:13.966Z,79.50
2023-04-10T05:20:41.340Z,78.42
2023-04-10T05:23:08.379Z,78.40
2023-04-10T05:25:35.778Z,77.36
2023-04-10T05:28:02.633Z,76.62
2023-04-10T05:30:29.736Z,76.40
2023-04-10T05:32:58.025Z,75.04
2023-04-10T05:35:25.114Z,74.05
2023-04-10T05:37:52.215Z,73.25
2023-04-10T05:40:19.049Z,73.28
2023-04-10T05:42:46.686Z,73.82
2023-04-10T05:45:15.327Z,73.62
2023-04-10T05:47:42.522Z,73.91
2023-04-10T05:50:09.962Z,72.74
2023-04-10T05:52:36.850Z,73.16
2023-04-10T05:55:04.281Z,72.13
2023-04-10T05:57:32.322Z,69.87
2023-04-10T05:59:59.533Z,69.44
2023-04-10T06:02:27.818Z,69.08
2023-04-10T06:04:55.166Z,68.19
2023-04-10T06:07:22.247Z,68.10
2023-04-10T06:09:49.318Z,67.69
2023-04-10T06:12:16.388Z,66.10
2023-04-10T06:14:43.373Z,66.51
2023-04-10T06:17:10.725Z,64.89
2023-04-10T06:19:39.893Z,64.20
2023-04-10T06:22:06.842Z,63.77
2023-04-10T06:24:33.884Z,62.46
2023-04-10T06:27:02.390Z,60.38
2023-04-10T06:29:29.210Z,59.30
2023-04-10T06:31:56.153Z,56.98
2023-04-10T06:34:23.084Z,55.47
2023-04-10T06:36:50.132Z,54.07
2023-04-10T06:39:17.799Z,54.83
2023-04-10T06:41:44.693Z,54.16
2023-04-10T06:44:11.700Z,52.10
2023-04-10T06:46:38.842Z,52.77
2023-04-10T06:49:06.442Z,52.60
2023-04-10T06:51:33.349Z,52.41
2023-04-10T06:54:00.127Z,51.06
2023-04-10T06:56:27.266Z,49.94
2023-04-10T06:58:54.350Z,48.68
2023-04-10T07:01:21.661Z,48.03
2023-04-10T07:03:48.625Z,49.13
2023-04-10T07:06:15.726Z,48.08
2023-04-10T07:08:42.581Z,45.06
2023-04-10T07:11:09.877Z,46.33
2023-04-10T07:13:39.161Z,44.55
2023-04-10T07:16:08.333Z,44.65
2023-04-10T07:18:39.479Z,44.28
2023-04-10T07:21:13.461Z,43.00
2023-04-10T07:23:41.125Z,39.53
2023-04-10T07:26:08.138Z,38.33
2023-04-10T07:28:35.153Z,35.26
2023-04-10T07:31:04.985Z,36.51
2023-04-10T07:33:32.072Z,38.05
2023-04-10T07:35:58.730Z,38.63
2023-04-10T07:38:25.888Z,39.95
2023-04-10T07:40:59.581Z,36.43
2023-04-10T07:43:26.701Z,37.47
2023-04-10T07:45:53.652Z,36.22
2023-04-10T07:48:20.880Z,37.00
2023-04-10T07:50:48.055Z,37.17
2023-04-10T07:53:14.905Z,35.95
2023-04-10T07:55:46.481Z,38.14
2023-04-10T07:58:13.405Z,37.00
2023-04-10T08:00:40.288Z,34.00
2023-04-10T08:03:07.605Z,32.09
2023-04-10T08:05:34.783Z,32.26
2023-04-10T08:08:01.598Z,34.30
2023-04-10T08:10:28.469Z,31.89
2023-04-10T08:12:55.299Z,29.72
2023-04-10T08:15:22.264Z,32.93
2023-04-10T08:17:50.032Z,35.33
2023-04-10T08:20:17.685Z,34.96
2023-04-10T08:22:44.567Z,36.60
2023-04-10T08:25:11.270Z,36.44
2023-04-10T08:27:38.339Z,34.24
2023-04-10T08:30:06.052Z,33.40
2023-04-10T08:32:33.090Z,33.77
2023-04-10T08:34:59.987Z,29.28
2023-04-10T08:37:27.188Z,27.71
2023-04-10T08:39:54.445Z,26.89
2023-04-10T08:42:22.462Z,28.52
2023-04-10T08:44:50.568Z,26.39
2023-04-10T08:47:21.539Z,23.95
2023-04-10T08:49:57.487Z,24.02
2023-04-10T08:52:29.754Z,22.82
2023-04-10T08:54:58.797Z,23.36
2023-04-10T08:57:27.449Z,19.19
2023-04-10T08:59:54.516Z,18.57
2023-04-10T09:02:22.387Z,16.34
2023-04-10T09:04:51.999Z,16.46
2023-04-10T09:07:19.097Z,15.28
2023-04-10T09:09:46.077Z,16.84
2023-04-10T09:12:14.614Z,15.89
2023-04-10T09:14:44.819Z,16.07
2023-04-10T09:17:22.884Z,15.73
2023-04-10T09:19:54.970Z,14.47
2023-04-10T09:22:36.532Z,14.41
2023-04-10T09:25:04.767Z,15.97
2023-04-10T09:27:35.424Z,17.03
2023-04-10T09:30:04.015Z,17.71
2023-04-10T09:32:39.604Z,16.51
2023-04-10T09:35:08.768Z,14.86
2023-04-10T09:37:36.683Z,15.55
2023-04-10T09:40:04.566Z,15.83
2023-04-10T09:42:37.532Z,18.28
2023-04-10T09:45:06.175Z,19.40
2023-04-10T09:47:33.503Z,18.47
2023-04-10T09:50:01.244Z,18.05
2023-04-10T09:52:31.960Z,18.07
2023-04-10T09:55:10.020Z,17.98
2023-04-10T09:57:36.993Z,16.61
2023-04-10T10:00:07.207Z,17.54
2023-04-10T10:02:42.599Z,15.61
2023-04-10T10:05:11.732Z,15.71
2023-04-10T10:07:39.489Z,17.34
2023-04-10T10:10:09.323Z,16.89
2023-04-10T10:12:52.348Z,16.05
2023-04-10T10:15:52.228Z,14.01
2023-04-10T10:18:42.262Z,15.52
2023-04-10T10:21:10.534Z,14.03
2023-04-10T10:23:38.883Z,14.31
2023-04-10T10:26:09.053Z,19.07
2023-04-10T10:28:37.543Z,21.73
2023-04-10T10:31:04.865Z,22.46
2023-04-10T10:33:36.194Z,22.62
2023-04-10T10:36:04.920Z,22.51
2023-04-10T10:38:33.178Z,24.24
2023-04-10T10:41:16.400Z,22.92
2023-04-10T10:43:52.434Z,20.98
2023-04-10T10:46:36.083Z,18.45
2023-04-10T10:49:03.087Z,19.63
2023-04-10T10:51:49.763Z,17.04
2023-04-10T10:54:33.942Z,17.08
2023-04-10T10:57:02.334Z,15.49
2023-04-10T10:59:44.317Z,15.55
2023-04-10T11:02:19.052Z,16.19
2023-04-10T11:04:47.959Z,16.10
2023-04-10T11:07:15.952Z,14.76
2023-04-10T11:09:50.734Z,14.03
2023-04-10T11:12:23.778Z,14.66
2023-04-10T11:15:01.510Z,15.56
2023-04-10T11:17:51.447Z,14.46
2023-04-10T11:20:21.087Z,14.39
2023-04-10T11:23:13.288Z,14.32
2023-04-10T11:25:53.723Z,15.58
2023-04-10T11:28:33.196Z,14.82
2023-04-10T11:31:22.676Z,17.67
2023-04-10T11:34:01.177Z,17.86
2023-04-10T11:36:29.116Z,18.48
2023-04-10T11:39:09.108Z,16.66
2023-04-10T11:41:54.775Z,17.55
2023-04-10T11:44:35.510Z,16.25
2023-04-10T11:47:02.639Z,15.93
2023-04-10T11:49:34.645Z,16.99
2023-04-10T11:52:01.871Z,16.95
2023-04-10T11:54:29.793Z,16.71
2023-04-10T11:57:03.192Z,18.05
2023-04-10T11:59:31.551Z,20.20
2023-04-10T12:02:14.927Z,21.60
2023-04-10T12:04:43.356Z,21.85
2023-04-10T12:07:11.198Z,21.38
2023-04-10T12:09:38.229Z,22.04
2023-04-10T12:12:06.861Z,22.93
2023-04-10T12:14:36.044Z,23.05
2023-04-10T12:17:03.974Z,22.94
2023-04-10T12:19:31.677Z,23.69
2023-04-10T12:21:59.849Z,23.54
2023-04-10T12:24:45.163Z,24.16
2023-04-10T12:27:27.899Z,25.12
2023-04-10T12:29:57.076Z,24.05
2023-04-10T12:32:25.910Z,24.86
2023-04-10T12:34:53.838Z,25.34
2023-04-10T12:37:21.310Z,25.30
2023-04-10T12:39:49.045Z,25.64
2023-04-10T12:42:21.144Z,25.18
2023-04-10T12:44:55.606Z,25.41
2023-04-10T12:47:24.152Z,25.81
2023-04-10T12:50:13.698Z,25.87
2023-04-10T12:52:43.414Z,25.53
2023-04-10T12:55:21.518Z,26.06
2023-04-10T12:57:49.010Z,25.44
2023-04-10T13:00:20.167Z,25.21
2023-04-10T13:02:48.947Z,24.93
2023-04-10T13:05:16.292Z,25.05
2023-04-10T13:07:43.283Z,26.03
2023-04-10T13:10:10.714Z,26.22
2023-04-10T13:12:39.265Z,27.16
2023-04-10T13:15:07.997Z,27.10
2023-04-10T13:17:35.485Z,26.93
2023-04-10T13:20:02.860Z,26.98
2023-04-10T13:22:29.850Z,26.69
2023-04-10T13:24:56.801Z,27.85
2023-04-10T13:27:23.712Z,27.76
2023-04-10T13:29:50.718Z,27.79
2023-04-10T13:32:17.715Z,27.18
2023-04-10T13:34:44.632Z,27.40
2023-04-10T13:37:15.268Z,27.71
2023-04-10T13:39:43.568Z,27.70
2023-04-10T13:42:11.400Z,27.67
2023-04-10T13:44:38.340Z,27.78
2023-04-10T13:47:05.306Z,27.86
2023-04-10T13:49:32.257Z,27.15
2023-04-10T13:51:59.495Z,28.75
2023-04-10T13:54:26.866Z,28.11
2023-04-10T13:56:54.962Z,27.05
2023-04-10T13:59:22.465Z,26.62
2023-04-10T14:01:55.100Z,27.53
2023-04-10T14:04:22.220Z,28.99
2023-04-10T14:06:51.702Z,28.55
2023-04-10T14:09:19.105Z,29.27
2023-04-10T14:11:46.002Z,28.89
2023-04-10T14:14:12.959Z,29.05
2023-04-10T14:16:39.993Z,30.47
2023-04-10T14:19:08.009Z,29.12
2023-04-10T14:21:35.382Z,29.13
2023-04-10T14:24:02.433Z,29.47
2023-04-10T14:26:29.328Z,28.63
2023-04-10T14:28:56.927Z,29.96
2023-04-10T14:31:23.934Z,29.47
2023-04-10T14:33:51.946Z,30.20
2023-04-10T14:36:19.563Z,29.99
2023-04-10T14:38:46.472Z,28.66
2023-04-10T14:41:13.614Z,29.79
2023-04-10T14:43:41.425Z,30.29
2023-04-10T14:46:08.983Z,30.71
2023-04-10T14:48:35.978Z,30.79
2023-04-10T14:51:04.614Z,31.17
2023-04-10T14:53:31.416Z,31.20
2023-04-10T14:55:58.271Z,31.33
2023-04-10T14:58:25.141Z,31.36
2023-04-10T15:00:52.288Z,31.79
2023-04-10T15:03:24.497Z,31.89
2023-04-10T15:06:00.288Z,32.72
2023-04-10T15:08:30.695Z,32.21
2023-04-10T15:10:57.702Z,32.73
2023-04-10T15:13:24.722Z,33.48
2023-04-10T15:15:51.673Z,33.31
2023-04-10T15:18:18.505Z,33.30
2023-04-10T15:20:45.733Z,32.27
2023-04-10T15:23:12.706Z,32.60
2023-04-10T15:25:39.962Z,32.33
2023-04-10T15:28:08.520Z,32.36
2023-04-10T15:30:35.609Z,32.38
2023-04-10T15:33:02.431Z,32.50
2023-04-10T15:35:30.771Z,32.63
2023-04-10T15:37:58.030Z,32.35
2023-04-10T15:40:25.018Z,33.60
2023-04-10T15:42:52.026Z,34.32
2023-04-10T15:45:18.951Z,34.66
2023-04-10T15:47:48.907Z,35.08
2023-04-10T15:50:15.912Z,35.50
2023-04-10T15:52:43.137Z,35.46
2023-04-10T15:55:10.314Z,35.10
2023-04-10T15:57:37.118Z,36.00
2023-04-10T16:00:04.891Z,35.78
2023-04-10T16:02:32.595Z,35.60
2023-04-10T16:04:59.972Z,35.49
2023-04-10T16:07:26.929Z,34.90
2023-04-10T16:09:55.460Z,34.55
2023-04-10T16:12:22.485Z,35.36
2023-04-10T16:14:49.445Z,34.28
2023-04-10T16:17:16.499Z,34.80
2023-04-10T16:19:43.419Z,34.99
2023-04-10T16:22:12.809Z,34.55
2023-04-10T16:24:39.722Z,34.98
2023-04-10T16:27:08.621Z,33.94
2023-04-10T16:29:35.791Z,33.71
2023-04-10T16:32:02.668Z,33.86
2023-04-10T16:34:29.740Z,33.89
2023-04-10T16:36:56.626Z,34.27
2023-04-10T16:39:23.513Z,34.17
2023-04-10T16:41:50.276Z,34.41
2023-04-10T16:44:17.288Z,34.23
2023-04-10T16:46:44.311Z,33.94
2023-04-10T16:49:11.201Z,33.92
2023-04-10T16:51:41.354Z,34.32
2023-04-10T16:54:08.216Z,34.89
2023-04-10T16:56:35.154Z,34.58
2023-04-10T16:59:02.048Z,34.48
2023-04-10T17:01:29.141Z,34.57
2023-04-10T17:03:56.670Z,35.12
2023-04-10T17:06:23.678Z,34.88
2023-04-10T17:08:50.490Z,35.33
2023-04-10T17:11:17.461Z,35.18
2023-04-10T17:13:44.258Z,35.36
2023-04-10T17:16:11.359Z,35.50
2023-04-10T17:18:38.360Z,35.63
2023-04-10T17:21:05.472Z,35.92
2023-04-10T17:23:32.767Z,35.87
2023-04-10T17:25:59.749Z,36.79
2023-04-10T17:28:26.750Z,36.99
2023-04-10T17:30:53.599Z,37.25
2023-04-10T17:33:21.976Z,37.58
2023-04-10T17:35:51.402Z,37.30
2023-04-10T17:38:18.901Z,37.31
2023-04-10T17:40:46.231Z,37.74
2023-04-10T17:43:13.312Z,38.49
2023-04-10T17:45:40.317Z,38.33
2023-04-10T17:48:08.034Z,38.16
2023-04-10T17:50:35.904Z,38.98
2023-04-10T17:53:03.031Z,38.46
2023-04-10T17:55:30.137Z,38.76
2023-04-10T17:57:59.915Z,38.63
2023-04-10T18:00:26.900Z,38.81
2023-04-10T18:03:00.104Z,38.84
2023-04-10T18:05:30.837Z,38.64
2023-04-10T18:07:57.707Z,39.14
2023-04-10T18:10:24.696Z,39.42
2023-04-10T18:12:51.905Z,39.52
2023-04-10T18:15:19.046Z,39.42
2023-04-10T18:17:46.133Z,39.77
2023-04-10T18:20:13.069Z,39.41
2023-04-10T18:22:40.105Z,39.60
2023-04-10T18:25:07.868Z,39.59
2023-04-10T18:27:36.153Z,39.77
2023-04-10T18:30:03.491Z,40.06
2023-04-10T18:32:30.610Z,40.29
2023-04-10T18:34:57.554Z,40.39
2023-04-10T18:37:24.451Z,40.64
2023-04-10T18:39:51.462Z,40.53
2023-04-10T18:42:18.423Z,40.86
2023-04-10T18:44:45.343Z,41.23
2023-04-10T18:47:12.555Z,40.62
2023-04-10T18:49:39.550Z,40.62
2023-04-10T18:52:07.839Z,40.35
2023-04-10T18:54:35.486Z,40.32
2023-04-10T18:57:02.559Z,40.86
2023-04-10T18:59:29.655Z,40.74
2023-04-10T19:01:56.419Z,40.99
2023-04-10T19:04:23.441Z,40.83
2023-04-10T19:06:51.607Z,41.14
2023-04-10T19:09:18.791Z,41.39
2023-04-10T19:11:45.871Z,42.79
2023-04-10T19:14:13.088Z,43.57
2023-04-10T19:16:39.997Z,44.78
2023-04-10T19:19:09.857Z,45.51
2023-04-10T19:21:36.755Z,45.61
2023-04-10T19:24:04.073Z,44.33
2023-04-10T19:26:33.874Z,43.97
2023-04-10T19:29:01.151Z,43.83
2023-04-10T19:31:29.896Z,43.75
2023-04-10T19:33:57.103Z,43.43
2023-04-10T19:36:27.759Z,43.56
2023-04-10T19:38:57.690Z,44.03
2023-04-10T19:41:24.818Z,44.78
2023-04-10T19:43:52.855Z,45.15
2023-04-10T19:46:21.758Z,45.57
2023-04-10T19:48:49.489Z,45.61
2023-04-10T19:51:16.519Z,45.00
2023-04-10T19:53:43.989Z,44.43
2023-04-10T19:56:11.040Z,44.75
2023-04-10T19:58:41.168Z,45.89
2023-04-10T20:01:12.595Z,45.35
2023-04-10T20:03:40.212Z,45.38
2023-04-10T20:06:08.352Z,46.67
2023-04-10T20:08:36.127Z,46.57
2023-04-10T20:11:07.004Z,45.60
2023-04-10T20:13:34.869Z,45.17
2023-04-10T20:16:02.144Z,45.68
2023-04-10T20:18:29.144Z,45.50
2023-04-10T20:20:56.004Z,45.43
2023-04-10T20:23:23.086Z,45.43
2023-04-10T20:25:50.181Z,45.43
2023-04-10T20:28:17.878Z,45.41
2023-04-10T20:30:44.646Z,44.98
2023-04-10T20:33:11.752Z,44.63
2023-04-10T20:35:38.888Z,44.67
2023-04-10T20:38:05.820Z,44.58
2023-04-10T20:40:32.789Z,45.49
2023-04-10T20:42:59.730Z,45.33
2023-04-10T20:45:26.736Z,45.72
2023-04-10T20:47:53.836Z,45.95
2023-04-10T20:50:21.012Z,45.56
2023-04-10T20:52:48.140Z,45.24
2023-04-10T20:55:17.924Z,45.76
2023-04-10T20:57:44.793Z,45.20
2023-04-10T21:00:12.105Z,45.21
2023-04-10T21:02:42.383Z,46.30
2023-04-10T21:05:09.733Z,48.18
2023-04-10T21:07:36.696Z,48.40
2023-04-10T21:10:04.796Z,48.34
2023-04-10T21:12:31.887Z,49.19
2023-04-10T21:14:58.898Z,49.92
2023-04-10T21:17:29.286Z,52.74
2023-04-10T21:19:56.115Z,55.19
2023-04-10T21:22:23.062Z,56.28
2023-04-10T21:24:50.335Z,53.06
2023-04-10T21:27:17.260Z,54.43
2023-04-10T21:29:44.570Z,55.26
2023-04-10T21:32:11.746Z,54.65
2023-04-10T21:34:39.044Z,55.42
2023-04-10T21:37:08.352Z,56.63
2023-04-10T21:39:35.556Z,57.92
2023-04-10T21:42:02.554Z,58.74
2023-04-10T21:44:29.331Z,57.93
2023-04-10T21:46:56.464Z,58.15
2023-04-10T21:49:23.424Z,57.94
2023-04-10T21:51:50.498Z,60.28
2023-04-10T21:54:17.494Z,61.45
2023-04-10T21:56:44.485Z,61.29
2023-04-10T21:59:11.778Z,63.61
2023-04-10T22:01:41.807Z,66.06
2023-04-10T22:04:09.155Z,67.91
2023-04-10T22:06:36.256Z,70.85
2023-04-10T22:09:03.258Z,71.37
2023-04-10T22:11:30.050Z,72.82
2023-04-10T22:13:58.262Z,73.87
2023-04-10T22:16:29.729Z,75.17
2023-04-10T22:18:56.980Z,77.09
2023-04-10T22:21:23.920Z,77.54
2023-04-10T22:23:50.958Z,79.25
2023-04-10T22:26:20.581Z,79.71
2023-04-10T22:28:47.560Z,79.57
2023-04-10T22:31:19.165Z,80.00
2023-04-10T22:33:46.946Z,80.13
2023-04-10T22:36:14.411Z,80.90
2023-04-10T22:38:41.486Z,80.78
2023-04-10T22:41:10.882Z,81.70
2023-04-10T22:43:37.712Z,82.15
2023-04-10T22:46:05.134Z,83.34
2023-04-10T22:48:32.769Z,84.17
2023-04-10T22:50:59.723Z,84.02
2023-04-10T22:53:27.595Z,84.64
2023-04-10T22:55:54.395Z,84.49
2023-04-10T22:58:21.254Z,84.88
2023-04-10T23:00:48.192Z,84.25
2023-04-10T23:03:15.503Z,83.58
2023-04-10T23:05:42.478Z,85.36
2023-04-10T23:08:09.268Z,85.49
2023-04-10T23:10:37.423Z,85.10
2023-04-10T23:13:04.311Z,85.80
2023-04-10T23:15:31.285Z,85.98
2023-04-10T23:17:58.285Z,86.66
2023-04-10T23:20:26.107Z,86.68
2023-04-10T23:22:55.475Z,86.77
2023-04-10T23:25:23.350Z,86.93
2023-04-10T23:27:50.054Z,87.42
2023-04-10T23:30:16.990Z,87.02
2023-04-10T23:32:43.844Z,87.25
2023-04-10T23:35:10.960Z,87.64
2023-04-10T23:37:38.139Z,87.68
2023-04-10T23:40:05.404Z,87.52
2023-04-10T23:42:32.327Z,87.23
2023-04-10T23:44:59.608Z,87.13
2023-04-10T23:47:26.553Z,87.19
2023-04-10T23:49:55.095Z,87.46
2023-04-10T23:52:21.911Z,87.72
2023-04-10T23:54:48.841Z,87.29
2023-04-10T23:57:16.040Z,87.61
2023-04-10T23:59:43.020Z,87.98
